createdAt,value
2018-04-18T00:00:19.987Z,9.6
2018-04-18T00:01:20.073Z,9.72
2018-04-18T00:02:19.974Z,9.71
2018-04-18T00:03:19.959Z,9.56
2018-04-18T00:04:19.955Z,9.69
2018-04-18T00:05:19.943Z,9.61
2018-04-18T00:06:19.933Z,9.64
2018-04-18T00:07:19.944Z,9.65
2018-04-18T00:08:19.920Z,9.6
2018-04-18T00:09:19.907Z,9.6
2018-04-18T00:10:19.648Z,9.61
2018-04-18T00:11:19.891Z,9.58
2018-04-18T00:12:19.887Z,9.57
2018-04-18T00:13:19.875Z,9.58
2018-04-18T00:14:19.882Z,9.51
2018-04-18T00:15:19.859Z,9.5
2018-04-18T00:16:19.852Z,9.5
2018-04-18T00:17:19.840Z,9.47
2018-04-18T00:18:19.833Z,9.5
2018-04-18T00:19:19.830Z,9.56
2018-04-18T00:20:19.814Z,9.47
2018-04-18T00:21:19.803Z,9.43
2018-04-18T00:22:19.795Z,9.48
2018-04-18T00:23:19.786Z,9.48
2018-04-18T00:24:19.530Z,9.56
2018-04-18T00:25:19.778Z,9.47
2018-04-18T00:26:19.780Z,9.53
2018-04-18T00:27:19.756Z,9.46
2018-04-18T00:28:19.743Z,9.51
2018-04-18T00:29:19.991Z,9.48
2018-04-18T00:30:19.742Z,9.53
2018-04-18T00:31:19.719Z,9.48
2018-04-18T00:32:19.736Z,9.53
2018-04-18T00:33:19.719Z,9.5
2018-04-18T00:34:19.693Z,9.54
2018-04-18T00:35:19.432Z,9.47
2018-04-18T00:36:19.677Z,9.46
2018-04-18T00:37:19.817Z,9.54
2018-04-18T00:38:19.669Z,9.48
2018-04-18T00:39:19.649Z,9.51
2018-04-18T00:40:19.639Z,9.46
2018-04-18T00:41:19.638Z,9.54
2018-04-18T00:42:19.624Z,9.53
2018-04-18T00:43:19.620Z,9.51
2018-04-18T00:44:19.609Z,9.47
2018-04-18T00:45:19.598Z,9.48
2018-04-18T00:46:19.335Z,9.48
2018-04-18T00:47:19.583Z,9.46
2018-04-18T00:48:19.570Z,9.43
2018-04-18T00:49:19.314Z,9.43
2018-04-18T00:50:19.571Z,9.38
2018-04-18T00:51:19.547Z,9.46
2018-04-18T00:52:19.283Z,9.36
2018-04-18T00:53:19.527Z,9.38
2018-04-18T00:54:19.517Z,9.47
2018-04-18T00:55:19.511Z,9.39
2018-04-18T00:56:19.501Z,9.43
2018-04-18T00:57:19.493Z,9.4
2018-04-18T00:58:19.488Z,9.33
2018-04-18T00:59:19.476Z,9.4
2018-04-18T01:00:19.716Z,9.36
2018-04-18T01:01:19.204Z,9.38
2018-04-18T01:02:19.449Z,9.33
2018-04-18T01:03:19.445Z,9.29
2018-04-18T01:04:19.432Z,9.36
2018-04-18T01:05:19.424Z,9.31
2018-04-18T01:06:19.419Z,9.33
2018-04-18T01:07:19.151Z,9.35
2018-04-18T01:08:19.399Z,9.32
2018-04-18T01:09:19.394Z,9.33
2018-04-18T01:10:19.379Z,9.32
2018-04-18T01:11:19.115Z,9.35
2018-04-18T01:12:19.369Z,9.35
2018-04-18T01:13:19.355Z,9.29
2018-04-18T01:14:19.342Z,9.24
2018-04-18T01:15:19.336Z,9.28
2018-04-18T01:16:19.328Z,9.2
2018-04-18T01:17:19.377Z,9.17
2018-04-18T01:18:19.318Z,9.15
2018-04-18T01:19:19.302Z,9.15
2018-04-18T01:20:19.291Z,9.21
2018-04-18T01:21:19.298Z,9.18
2018-04-18T01:22:19.274Z,9.15
2018-04-18T01:23:19.010Z,9.13
2018-04-18T01:24:19.000Z,9.13
2018-04-18T01:25:19.248Z,9.04
2018-04-18T01:26:19.241Z,9.2
2018-04-18T01:27:19.229Z,9.02
2018-04-18T01:28:18.984Z,9.05
2018-04-18T01:29:19.212Z,9.13
2018-04-18T01:30:19.206Z,9.08
2018-04-18T01:31:18.943Z,9.02
2018-04-18T01:32:19.185Z,9.02
2018-04-18T01:33:19.183Z,9.1
2018-04-18T01:34:19.168Z,9.02
2018-04-18T01:35:19.158Z,9.02
2018-04-18T01:36:19.144Z,9.01
2018-04-18T01:37:19.138Z,9.04
2018-04-18T01:38:19.132Z,9.08
2018-04-18T01:39:19.122Z,9.01
2018-04-18T01:40:19.110Z,9.04
2018-04-18T01:41:19.101Z,8.98
2018-04-18T01:42:19.093Z,9.05
2018-04-18T01:43:19.086Z,8.99
2018-04-18T01:44:19.074Z,9.04
2018-04-18T01:45:18.815Z,8.95
2018-04-18T01:46:19.057Z,8.94
2018-04-18T01:47:19.062Z,8.98
2018-04-18T01:48:19.049Z,8.99
2018-04-18T01:49:19.035Z,8.99
2018-04-18T01:50:19.028Z,8.98
2018-04-18T01:51:19.012Z,8.94
2018-04-18T01:52:19.006Z,8.92
2018-04-18T01:53:18.994Z,8.89
2018-04-18T01:54:18.987Z,8.98
2018-04-18T01:55:18.979Z,8.95
2018-04-18T01:56:18.970Z,8.96
2018-04-18T01:57:18.975Z,8.89
2018-04-18T01:58:18.959Z,8.98
2018-04-18T01:59:19.005Z,8.98
2018-04-18T02:00:18.679Z,8.99
2018-04-18T02:01:18.926Z,8.89
2018-04-18T02:02:18.920Z,8.91
2018-04-18T02:03:18.909Z,8.92
2018-04-18T02:04:18.905Z,8.95
2018-04-18T02:05:18.884Z,8.91
2018-04-18T02:06:18.878Z,8.95
2018-04-18T02:07:18.867Z,8.86
2018-04-18T02:08:18.868Z,8.92
2018-04-18T02:09:18.851Z,8.84
2018-04-18T02:10:18.848Z,8.86
2018-04-18T02:11:18.831Z,8.79
2018-04-18T02:12:18.569Z,8.77
2018-04-18T02:13:18.811Z,8.86
2018-04-18T02:14:18.809Z,8.77
2018-04-18T02:15:18.794Z,8.84
2018-04-18T02:16:18.783Z,8.79
2018-04-18T02:17:18.780Z,8.84
2018-04-18T02:18:18.770Z,8.71
2018-04-18T02:19:18.754Z,8.8
2018-04-18T02:20:18.495Z,8.7
2018-04-18T02:21:18.739Z,8.66
2018-04-18T02:22:18.729Z,8.7
2018-04-18T02:23:18.720Z,8.7
2018-04-18T02:24:18.459Z,8.83
2018-04-18T02:25:18.706Z,8.73
2018-04-18T02:26:18.696Z,8.79
2018-04-18T02:27:18.689Z,8.68
2018-04-18T02:28:18.421Z,8.7
2018-04-18T02:29:18.667Z,8.63
2018-04-18T02:30:18.656Z,8.76
2018-04-18T02:31:18.654Z,8.68
2018-04-18T02:32:18.655Z,8.71
2018-04-18T02:33:18.631Z,8.7
2018-04-18T02:34:18.886Z,8.81
2018-04-18T02:35:18.613Z,8.66
2018-04-18T02:36:18.606Z,8.73
2018-04-18T02:37:18.591Z,8.76
2018-04-18T02:38:18.582Z,8.8
2018-04-18T02:39:18.572Z,8.71
2018-04-18T02:40:18.568Z,8.8
2018-04-18T02:41:18.559Z,8.71
2018-04-18T02:42:18.545Z,8.71
2018-04-18T02:43:18.283Z,8.66
2018-04-18T02:44:18.535Z,8.77
2018-04-18T02:45:18.532Z,8.66
2018-04-18T02:46:18.511Z,8.76
2018-04-18T02:47:18.518Z,8.74
2018-04-18T02:48:18.493Z,8.79
2018-04-18T02:49:18.556Z,8.73
2018-04-18T02:50:18.469Z,8.81
2018-04-18T02:51:18.466Z,8.76
2018-04-18T02:52:18.456Z,8.79
2018-04-18T02:53:18.450Z,8.65
2018-04-18T02:54:18.431Z,8.74
2018-04-18T02:55:18.438Z,8.7
2018-04-18T02:56:18.424Z,8.65
2018-04-18T02:57:18.151Z,8.7
2018-04-18T02:58:18.409Z,8.66
2018-04-18T02:59:18.387Z,8.63
2018-04-18T03:00:18.123Z,8.76
2018-04-18T03:01:18.114Z,8.74
2018-04-18T03:02:18.361Z,8.61
2018-04-18T03:03:18.351Z,8.71
2018-04-18T03:04:18.347Z,8.59
2018-04-18T03:05:18.579Z,8.62
2018-04-18T03:06:18.323Z,8.55
2018-04-18T03:07:18.311Z,8.55
2018-04-18T03:08:18.314Z,8.74
2018-04-18T03:09:18.297Z,8.55
2018-04-18T03:10:18.286Z,8.52
2018-04-18T03:11:18.276Z,8.61
2018-04-18T03:12:18.270Z,8.7
2018-04-18T03:13:18.255Z,8.68
2018-04-18T03:14:18.251Z,8.79
2018-04-18T03:15:18.238Z,8.71
2018-04-18T03:16:18.229Z,8.68
2018-04-18T03:17:18.219Z,8.76
2018-04-18T03:18:18.223Z,8.59
2018-04-18T03:19:18.206Z,8.74
2018-04-18T03:20:17.939Z,8.68
2018-04-18T03:21:18.181Z,8.58
2018-04-18T03:22:18.177Z,8.65
2018-04-18T03:23:18.161Z,8.66
2018-04-18T03:24:18.158Z,8.61
2018-04-18T03:25:18.142Z,8.59
2018-04-18T03:26:18.136Z,8.61
2018-04-18T03:27:18.130Z,8.66
2018-04-18T03:28:18.115Z,8.62
2018-04-18T03:29:18.105Z,8.63
2018-04-18T03:30:18.104Z,8.56
2018-04-18T03:31:18.091Z,8.56
2018-04-18T03:32:18.082Z,8.52
2018-04-18T03:33:18.079Z,8.55
2018-04-18T03:34:17.808Z,8.55
2018-04-18T03:35:18.054Z,8.53
2018-04-18T03:36:18.292Z,8.55
2018-04-18T03:37:18.033Z,8.55
2018-04-18T03:38:18.024Z,8.52
2018-04-18T03:39:18.017Z,8.55
2018-04-18T03:40:18.005Z,8.55
2018-04-18T03:41:17.742Z,8.53
2018-04-18T03:42:17.746Z,8.58
2018-04-18T03:43:17.982Z,8.56
2018-04-18T03:44:17.970Z,8.55
2018-04-18T03:45:17.962Z,8.56
2018-04-18T03:46:17.956Z,8.47
2018-04-18T03:47:17.685Z,8.48
2018-04-18T03:48:17.938Z,8.52
2018-04-18T03:49:17.925Z,8.53
2018-04-18T03:50:17.923Z,8.48
2018-04-18T03:51:17.658Z,8.52
2018-04-18T03:52:17.642Z,8.47
2018-04-18T03:53:17.886Z,8.48
2018-04-18T03:54:17.873Z,8.52
2018-04-18T03:55:17.868Z,8.52
2018-04-18T03:56:17.861Z,8.5
2018-04-18T03:57:17.848Z,8.52
2018-04-18T03:58:17.585Z,8.47
2018-04-18T03:59:17.837Z,8.52
2018-04-18T04:00:17.566Z,8.48
2018-04-18T04:01:17.813Z,8.53
2018-04-18T04:02:17.800Z,8.52
2018-04-18T04:03:17.797Z,8.58
2018-04-18T04:04:17.782Z,8.59
2018-04-18T04:05:17.772Z,8.63
2018-04-18T04:06:17.506Z,8.66
2018-04-18T04:07:17.751Z,8.71
2018-04-18T04:08:17.745Z,8.65
2018-04-18T04:09:17.730Z,8.68
2018-04-18T04:10:17.735Z,8.71
2018-04-18T04:11:17.713Z,8.65
2018-04-18T04:12:17.703Z,8.71
2018-04-18T04:13:17.693Z,8.71
2018-04-18T04:14:17.684Z,8.77
2018-04-18T04:15:17.679Z,8.74
2018-04-18T04:16:17.666Z,8.89
2018-04-18T04:17:17.655Z,8.94
2018-04-18T04:18:17.648Z,8.92
2018-04-18T04:19:17.644Z,8.98
2018-04-18T04:20:17.628Z,8.99
2018-04-18T04:21:17.620Z,9.08
2018-04-18T04:22:17.612Z,9.11
2018-04-18T04:23:17.348Z,9.15
2018-04-18T04:24:17.593Z,9.2
2018-04-18T04:25:17.585Z,9.31
2018-04-18T04:26:17.580Z,9.36
2018-04-18T04:27:17.587Z,9.46
2018-04-18T04:28:17.557Z,9.48
2018-04-18T04:29:17.547Z,9.57
2018-04-18T04:30:17.293Z,9.69
2018-04-18T04:31:17.532Z,9.81
2018-04-18T04:32:17.273Z,9.84
2018-04-18T04:33:17.522Z,9.94
2018-04-18T04:34:17.252Z,10.11
2018-04-18T04:35:17.500Z,10.07
2018-04-18T04:36:17.239Z,10.2
2018-04-18T04:37:17.480Z,10.33
2018-04-18T04:38:17.471Z,10.42
2018-04-18T04:39:17.463Z,10.52
2018-04-18T04:40:17.462Z,10.66
2018-04-18T04:41:17.451Z,10.78
2018-04-18T04:42:17.439Z,10.86
2018-04-18T04:43:17.436Z,11.02
2018-04-18T04:44:17.424Z,11.03
2018-04-18T04:45:17.416Z,11.27
2018-04-18T04:46:17.412Z,11.46
2018-04-18T04:47:16.896Z,11.49
2018-04-18T04:48:17.407Z,11.54
2018-04-18T04:49:17.141Z,11.75
2018-04-18T04:50:17.378Z,11.83
2018-04-18T04:51:17.372Z,11.99
2018-04-18T04:52:17.372Z,12.12
2018-04-18T04:53:17.108Z,12.31
2018-04-18T04:54:17.356Z,12.46
2018-04-18T04:55:17.344Z,12.64
2018-04-18T04:56:17.354Z,12.7
2018-04-18T04:57:17.082Z,12.82
2018-04-18T04:58:17.345Z,13
2018-04-18T04:59:17.323Z,13.1
2018-04-18T05:00:17.328Z,13.23
2018-04-18T05:01:17.314Z,13.29
2018-04-18T05:02:17.317Z,13.44
2018-04-18T05:03:17.299Z,13.49
2018-04-18T05:04:17.055Z,13.63
2018-04-18T05:05:17.291Z,13.66
2018-04-18T05:06:17.284Z,13.77
2018-04-18T05:07:17.684Z,13.91
2018-04-18T05:08:16.766Z,13.95
2018-04-18T05:09:17.268Z,14.04
2018-04-18T05:10:17.302Z,14.12
2018-04-18T05:11:17.268Z,14.1
2018-04-18T05:12:17.001Z,14.17
2018-04-18T05:13:16.748Z,14.2
2018-04-18T05:14:17.245Z,14.35
2018-04-18T05:15:17.237Z,14.42
2018-04-18T05:16:16.979Z,14.68
2018-04-18T05:17:17.234Z,14.83
2018-04-18T05:18:17.228Z,15.02
2018-04-18T05:19:17.229Z,15.19
2018-04-18T05:20:17.218Z,15.47
2018-04-18T05:21:17.011Z,15.47
2018-04-18T05:22:16.955Z,15.74
2018-04-18T05:23:17.202Z,15.94
2018-04-18T05:24:17.202Z,16.05
2018-04-18T05:25:17.194Z,16.21
2018-04-18T05:26:17.191Z,16.33
2018-04-18T05:27:17.194Z,16.53
2018-04-18T05:28:16.932Z,16.68
2018-04-18T05:29:17.186Z,16.81
2018-04-18T05:30:16.929Z,16.96
2018-04-18T05:31:17.175Z,17.11
2018-04-18T05:32:17.173Z,17.12
2018-04-18T05:33:17.241Z,17.36
2018-04-18T05:34:17.171Z,17.52
2018-04-18T05:35:16.913Z,17.72
2018-04-18T05:36:17.167Z,17.81
2018-04-18T05:37:16.915Z,18.02
2018-04-18T05:38:17.165Z,18.23
2018-04-18T05:39:17.157Z,18.45
2018-04-18T05:40:16.903Z,18.6
2018-04-18T05:41:17.408Z,18.84
2018-04-18T05:42:17.157Z,18.98
2018-04-18T05:43:17.152Z,19.16
2018-04-18T05:44:16.645Z,19.44
2018-04-18T05:45:16.960Z,19.69
2018-04-18T05:46:16.898Z,19.84
2018-04-18T05:47:17.559Z,20.1
2018-04-18T05:48:17.177Z,20.06
2018-04-18T05:49:16.910Z,20.35
2018-04-18T05:50:17.151Z,20.55
2018-04-18T05:51:16.896Z,20.8
2018-04-18T05:52:16.650Z,20.88
2018-04-18T05:53:16.647Z,21.07
2018-04-18T05:54:17.160Z,21.17
2018-04-18T05:55:16.697Z,21.37
2018-04-18T05:56:17.159Z,21.53
2018-04-18T05:57:17.161Z,21.65
2018-04-18T05:58:17.159Z,21.9
2018-04-18T05:59:16.655Z,22.06
2018-04-18T06:00:17.175Z,22.1
2018-04-18T06:01:16.924Z,22.21
2018-04-18T06:02:16.916Z,22.21
2018-04-18T06:03:16.664Z,22.39
2018-04-18T06:04:17.176Z,22.57
2018-04-18T06:05:17.185Z,22.62
2018-04-18T06:06:17.399Z,22.8
2018-04-18T06:07:17.184Z,22.95
2018-04-18T06:08:16.931Z,23.16
2018-04-18T06:09:17.188Z,23.22
2018-04-18T06:10:17.247Z,23.47
2018-04-18T06:11:17.353Z,23.6
2018-04-18T06:12:18.010Z,23.79
2018-04-18T06:13:17.218Z,24.02
2018-04-18T06:14:17.206Z,24.09
2018-04-18T06:15:16.967Z,24.15
2018-04-18T06:16:17.235Z,24.31
2018-04-18T06:17:17.245Z,24.52
2018-04-18T06:18:17.225Z,24.71
2018-04-18T06:19:17.482Z,24.83
2018-04-18T06:20:17.242Z,24.98
2018-04-18T06:21:19.789Z,25.18
2018-04-18T06:22:17.257Z,25.33
2018-04-18T06:23:17.253Z,25.45
2018-04-18T06:24:17.259Z,25.52
2018-04-18T06:25:17.015Z,25.75
2018-04-18T06:26:17.022Z,25.85
2018-04-18T06:27:17.404Z,26.1
2018-04-18T06:28:17.291Z,26.25
2018-04-18T06:29:17.053Z,26.39
2018-04-18T06:30:17.051Z,26.57
2018-04-18T06:31:17.309Z,26.67
2018-04-18T06:32:17.071Z,26.87
2018-04-18T06:33:17.328Z,26.91
2018-04-18T06:34:17.337Z,27.07
2018-04-18T06:35:17.344Z,27.19
2018-04-18T06:36:17.097Z,27.28
2018-04-18T06:37:17.366Z,27.55
2018-04-18T06:38:17.356Z,27.75
2018-04-18T06:39:17.367Z,27.74
2018-04-18T06:40:17.141Z,27.96
2018-04-18T06:41:17.399Z,28.04
2018-04-18T06:42:17.171Z,28.21
2018-04-18T06:43:17.659Z,28.21
2018-04-18T06:44:17.416Z,28.31
2018-04-18T06:45:17.428Z,28.51
2018-04-18T06:46:17.472Z,28.48
2018-04-18T06:47:17.443Z,28.66
2018-04-18T06:48:17.220Z,28.76
2018-04-18T06:49:17.459Z,28.95
2018-04-18T06:50:17.467Z,28.9
2018-04-18T06:51:17.594Z,29.12
2018-04-18T06:52:17.545Z,29.26
2018-04-18T06:53:17.254Z,29.26
2018-04-18T06:54:17.529Z,29.42
2018-04-18T06:55:17.523Z,29.58
2018-04-18T06:56:17.283Z,29.65
2018-04-18T06:57:17.282Z,29.79
2018-04-18T06:58:17.570Z,29.95
2018-04-18T06:59:17.556Z,29.98
2018-04-18T07:00:17.314Z,30.1
2018-04-18T07:01:17.575Z,30.26
2018-04-18T07:02:17.599Z,30.22
2018-04-18T07:03:17.354Z,30.27
2018-04-18T07:04:17.621Z,30.22
2018-04-18T07:05:17.381Z,30.34
2018-04-18T07:06:17.652Z,30.43
2018-04-18T07:07:17.643Z,30.57
2018-04-18T07:08:17.654Z,30.54
2018-04-18T07:09:17.409Z,30.6
2018-04-18T07:10:17.683Z,30.75
2018-04-18T07:11:17.820Z,30.84
2018-04-18T07:12:17.705Z,30.92
2018-04-18T07:13:17.736Z,30.99
2018-04-18T07:14:17.999Z,31.07
2018-04-18T07:15:17.742Z,31.14
2018-04-18T07:16:17.758Z,31.35
2018-04-18T07:17:17.520Z,31.41
2018-04-18T07:18:17.767Z,31.41
2018-04-18T07:19:17.784Z,31.56
2018-04-18T07:20:17.792Z,31.65
2018-04-18T07:21:17.805Z,31.73
2018-04-18T07:22:17.810Z,31.75
2018-04-18T07:23:17.577Z,31.92
2018-04-18T07:24:17.840Z,31.89
2018-04-18T07:25:17.595Z,31.92
2018-04-18T07:26:17.870Z,31.95
2018-04-18T07:27:17.880Z,31.96
2018-04-18T07:28:17.893Z,32.01
2018-04-18T07:29:17.915Z,32.01
2018-04-18T07:30:19.181Z,32.07
2018-04-18T07:31:17.924Z,32.04
2018-04-18T07:32:17.680Z,32.04
2018-04-18T07:33:17.953Z,32.04
2018-04-18T07:34:17.775Z,32.03
2018-04-18T07:35:17.998Z,32.04
2018-04-18T07:36:17.727Z,32.21
2018-04-18T07:37:17.992Z,32.19
2018-04-18T07:38:18.016Z,32.23
2018-04-18T07:39:18.027Z,32.32
2018-04-18T07:40:17.775Z,32.35
2018-04-18T07:41:18.046Z,32.35
2018-04-18T07:42:18.086Z,32.47
2018-04-18T07:43:20.215Z,32.47
2018-04-18T07:44:18.085Z,32.56
2018-04-18T07:45:18.344Z,32.59
2018-04-18T07:46:18.131Z,32.59
2018-04-18T07:47:18.125Z,32.55
2018-04-18T07:48:18.175Z,32.55
2018-04-18T07:49:18.171Z,32.65
2018-04-18T07:50:17.916Z,32.5
2018-04-18T07:51:17.945Z,32.6
2018-04-18T07:52:18.238Z,32.66
2018-04-18T07:53:18.214Z,32.66
2018-04-18T07:54:18.243Z,32.63
2018-04-18T07:55:18.243Z,32.6
2018-04-18T07:56:18.258Z,32.48
2018-04-18T07:57:18.269Z,32.32
2018-04-18T07:58:18.290Z,32.38
2018-04-18T07:59:18.318Z,32.45
2018-04-18T08:00:18.066Z,32.41
2018-04-18T08:01:17.817Z,32.33
2018-04-18T08:02:18.342Z,32.4
2018-04-18T08:03:18.363Z,32.47
2018-04-18T08:04:18.444Z,32.45
2018-04-18T08:05:18.161Z,32.6
2018-04-18T08:06:18.171Z,32.52
2018-04-18T08:07:18.417Z,32.55
2018-04-18T08:08:18.445Z,32.41
2018-04-18T08:09:18.483Z,32.35
2018-04-18T08:10:18.491Z,32.32
2018-04-18T08:11:18.537Z,32.33
2018-04-18T08:12:18.555Z,32.26
2018-04-18T08:13:18.564Z,32.22
2018-04-18T08:14:18.567Z,32.26
2018-04-18T08:15:18.862Z,32.26
2018-04-18T08:16:18.588Z,32.13
2018-04-18T08:17:18.811Z,32.15
2018-04-18T08:18:18.372Z,32.03
2018-04-18T08:19:18.378Z,31.96
2018-04-18T08:20:18.660Z,31.91
2018-04-18T08:21:18.677Z,31.8
2018-04-18T08:22:18.672Z,31.69
2018-04-18T08:23:18.664Z,31.56
2018-04-18T08:24:18.714Z,31.46
2018-04-18T08:25:18.718Z,31.28
2018-04-18T08:26:18.738Z,31.09
2018-04-18T08:27:18.722Z,30.84
2018-04-18T08:28:18.722Z,30.64
2018-04-18T08:29:18.704Z,30.49
2018-04-18T08:30:18.471Z,30.11
2018-04-18T08:31:18.476Z,30.01
2018-04-18T08:32:18.260Z,29.71
2018-04-18T08:33:18.761Z,29.41
2018-04-18T08:34:18.285Z,29.02
2018-04-18T08:35:18.777Z,28.8
2018-04-18T08:36:18.802Z,28.36
2018-04-18T08:37:18.826Z,28
2018-04-18T08:38:18.807Z,27.75
2018-04-18T08:39:18.844Z,27.66
2018-04-18T08:40:18.834Z,27.32
2018-04-18T08:41:18.857Z,27.03
2018-04-18T08:42:18.617Z,26.94
2018-04-18T08:43:18.857Z,26.66
2018-04-18T08:44:18.848Z,26.48
2018-04-18T08:45:18.857Z,26.29
2018-04-18T08:46:18.637Z,26.02
2018-04-18T08:47:18.887Z,25.97
2018-04-18T08:48:19.148Z,25.85
2018-04-18T08:49:18.376Z,25.73
2018-04-18T08:50:18.892Z,25.65
2018-04-18T08:51:18.894Z,25.55
2018-04-18T08:52:18.645Z,25.42
2018-04-18T08:53:18.908Z,25.32
2018-04-18T08:54:18.656Z,25.28
2018-04-18T08:55:18.912Z,25.18
2018-04-18T08:56:18.920Z,25.02
2018-04-18T08:57:18.934Z,24.93
2018-04-18T08:58:19.233Z,24.81
2018-04-18T08:59:18.684Z,24.78
2018-04-18T09:00:18.941Z,24.61
2018-04-18T09:01:18.944Z,24.55
2018-04-18T09:02:18.756Z,24.43
2018-04-18T09:03:18.445Z,24.37
2018-04-18T09:04:18.704Z,24.35
2018-04-18T09:05:18.964Z,24.22
2018-04-18T09:06:18.956Z,24.3
2018-04-18T09:07:18.979Z,24.24
2018-04-18T09:08:18.706Z,24.18
2018-04-18T09:09:18.710Z,24.15
2018-04-18T09:10:18.982Z,24.12
2018-04-18T09:11:18.975Z,24.09
2018-04-18T09:12:19.030Z,24.1
2018-04-18T09:13:18.979Z,24.03
2018-04-18T09:14:18.976Z,24
2018-04-18T09:15:18.735Z,23.93
2018-04-18T09:16:19.006Z,23.95
2018-04-18T09:17:18.748Z,23.91
2018-04-18T09:18:18.740Z,23.85
2018-04-18T09:19:19.240Z,23.83
2018-04-18T09:20:18.994Z,23.79
2018-04-18T09:21:18.996Z,23.66
2018-04-18T09:22:19.001Z,23.55
2018-04-18T09:23:19.223Z,23.5
2018-04-18T09:24:19.013Z,23.6
2018-04-18T09:25:19.000Z,23.57
2018-04-18T09:26:18.777Z,23.57
2018-04-18T09:27:19.016Z,23.58
2018-04-18T09:28:19.021Z,23.53
2018-04-18T09:29:19.014Z,23.57
2018-04-18T09:30:19.068Z,23.53
2018-04-18T09:31:19.022Z,23.53
2018-04-18T09:32:19.026Z,23.54
2018-04-18T09:33:18.793Z,23.58
2018-04-18T09:34:19.048Z,23.48
2018-04-18T09:35:19.032Z,23.6
2018-04-18T09:36:19.058Z,23.58
2018-04-18T09:37:18.785Z,23.5
2018-04-18T09:38:18.780Z,23.48
2018-04-18T09:39:19.027Z,23.5
2018-04-18T09:40:18.781Z,23.54
2018-04-18T09:41:19.077Z,23.5
2018-04-18T09:42:19.088Z,23.55
2018-04-18T09:43:19.060Z,23.6
2018-04-18T09:44:19.043Z,23.54
2018-04-18T09:45:19.044Z,23.6
2018-04-18T09:46:19.169Z,23.57
2018-04-18T09:47:19.075Z,23.6
2018-04-18T09:48:18.787Z,23.57
2018-04-18T09:49:18.535Z,23.5
2018-04-18T09:50:19.859Z,23.47
2018-04-18T09:51:19.047Z,23.51
2018-04-18T09:52:19.074Z,23.47
2018-04-18T09:53:19.069Z,23.55
2018-04-18T09:54:19.055Z,23.47
2018-04-18T09:55:19.075Z,23.47
2018-04-18T09:56:19.092Z,23.5
2018-04-18T09:57:19.085Z,23.5
2018-04-18T09:58:19.143Z,23.46
2018-04-18T09:59:19.062Z,23.47
2018-04-18T10:00:19.091Z,23.48
2018-04-18T10:01:19.134Z,23.48
2018-04-18T10:02:18.843Z,23.43
2018-04-18T10:03:19.126Z,23.47
2018-04-18T10:04:19.085Z,23.51
2018-04-18T10:05:18.836Z,23.43
2018-04-18T10:06:18.841Z,23.46
2018-04-18T10:07:19.143Z,23.47
2018-04-18T10:08:18.834Z,23.47
2018-04-18T10:09:19.074Z,23.5
2018-04-18T10:10:18.958Z,23.47
2018-04-18T10:11:19.071Z,23.53
2018-04-18T10:12:19.078Z,23.51
2018-04-18T10:13:19.110Z,23.48
2018-04-18T10:14:19.153Z,23.57
2018-04-18T10:15:19.143Z,23.5
2018-04-18T10:16:18.977Z,23.5
2018-04-18T10:17:19.101Z,23.48
2018-04-18T10:18:18.835Z,23.55
2018-04-18T10:19:19.168Z,23.57
2018-04-18T10:20:19.101Z,23.47
2018-04-18T10:21:19.348Z,23.63
2018-04-18T10:22:19.125Z,23.48
2018-04-18T10:23:19.096Z,23.6
2018-04-18T10:24:19.086Z,23.54
2018-04-18T10:25:19.087Z,23.53
2018-04-18T10:26:19.107Z,23.53
2018-04-18T10:27:19.101Z,23.5
2018-04-18T10:28:19.118Z,23.5
2018-04-18T10:29:19.094Z,23.54
2018-04-18T10:30:19.093Z,23.57
2018-04-18T10:31:18.582Z,23.55
2018-04-18T10:32:19.124Z,23.57
2018-04-18T10:33:19.109Z,23.51
2018-04-18T10:34:18.857Z,23.57
2018-04-18T10:35:19.093Z,23.5
2018-04-18T10:36:19.096Z,23.5
2018-04-18T10:37:18.917Z,23.55
2018-04-18T10:38:19.004Z,23.47
2018-04-18T10:39:18.869Z,23.48
2018-04-18T10:40:18.876Z,23.47
2018-04-18T10:41:19.101Z,23.54
2018-04-18T10:42:19.099Z,23.54
2018-04-18T10:43:19.127Z,23.54
2018-04-18T10:44:18.859Z,23.57
2018-04-18T10:45:18.855Z,23.58
2018-04-18T10:46:19.104Z,23.46
2018-04-18T10:47:19.113Z,23.48
2018-04-18T10:48:19.113Z,23.47
2018-04-18T10:49:18.859Z,23.57
2018-04-18T10:50:19.108Z,23.53
2018-04-18T10:51:19.103Z,23.58
2018-04-18T10:52:19.371Z,23.48
2018-04-18T10:53:19.113Z,23.6
2018-04-18T10:54:18.864Z,23.53
2018-04-18T10:55:19.139Z,23.66
2018-04-18T10:56:19.123Z,23.5
2018-04-18T10:57:19.113Z,23.57
2018-04-18T10:58:19.116Z,23.57
2018-04-18T10:59:19.132Z,23.61
2018-04-18T11:00:19.177Z,23.57
2018-04-18T11:01:19.128Z,23.6
2018-04-18T11:02:19.125Z,23.6
2018-04-18T11:03:19.125Z,23.6
2018-04-18T11:04:19.127Z,23.61
2018-04-18T11:05:19.141Z,23.66
2018-04-18T11:06:19.119Z,23.61
2018-04-18T11:07:19.126Z,23.66
2018-04-18T11:08:18.928Z,23.69
2018-04-18T11:09:18.891Z,23.68
2018-04-18T11:10:19.123Z,23.66
2018-04-18T11:11:19.140Z,23.68
2018-04-18T11:12:18.906Z,23.69
2018-04-18T11:13:19.338Z,23.73
2018-04-18T11:14:18.887Z,23.61
2018-04-18T11:15:19.154Z,23.72
2018-04-18T11:16:19.166Z,23.72
2018-04-18T11:17:19.160Z,23.73
2018-04-18T11:18:19.193Z,23.72
2018-04-18T11:19:19.178Z,23.73
2018-04-18T11:20:19.152Z,23.8
2018-04-18T11:21:19.144Z,23.8
2018-04-18T11:22:19.156Z,23.83
2018-04-18T11:23:18.893Z,23.72
2018-04-18T11:24:19.198Z,23.8
2018-04-18T11:25:19.164Z,23.79
2018-04-18T11:26:19.210Z,23.8
2018-04-18T11:27:19.162Z,23.76
2018-04-18T11:28:18.893Z,23.8
2018-04-18T11:29:19.207Z,23.85
2018-04-18T11:30:19.145Z,23.83
2018-04-18T11:31:19.147Z,23.83
2018-04-18T11:32:19.151Z,23.87
2018-04-18T11:33:19.156Z,23.95
2018-04-18T11:34:19.145Z,23.94
2018-04-18T11:35:19.152Z,23.9
2018-04-18T11:36:19.156Z,24
2018-04-18T11:37:19.152Z,23.97
2018-04-18T11:38:18.896Z,23.94
2018-04-18T11:39:18.898Z,23.98
2018-04-18T11:40:19.168Z,24
2018-04-18T11:41:19.151Z,24
2018-04-18T11:42:19.186Z,24
2018-04-18T11:43:19.170Z,23.95
2018-04-18T11:44:19.169Z,23.95
2018-04-18T11:45:19.176Z,23.97
2018-04-18T11:46:18.906Z,23.95
2018-04-18T11:47:19.183Z,24
2018-04-18T11:48:19.165Z,24
2018-04-18T11:49:19.160Z,23.95
2018-04-18T11:50:19.162Z,24.03
2018-04-18T11:51:19.238Z,23.95
2018-04-18T11:52:19.246Z,23.94
2018-04-18T11:53:18.918Z,23.93
2018-04-18T11:54:19.171Z,23.97
2018-04-18T11:55:18.662Z,23.98
2018-04-18T11:56:19.177Z,24.03
2018-04-18T11:57:18.672Z,24.03
2018-04-18T11:58:18.919Z,24
2018-04-18T11:59:18.923Z,24.06
2018-04-18T12:00:19.185Z,24.06
2018-04-18T12:01:19.178Z,24.09
2018-04-18T12:02:19.249Z,24.03
2018-04-18T12:03:19.178Z,24.1
2018-04-18T12:04:19.283Z,24.12
2018-04-18T12:05:18.940Z,24.12
2018-04-18T12:06:19.178Z,24.13
2018-04-18T12:07:19.178Z,24.16
2018-04-18T12:08:19.185Z,24.08
2018-04-18T12:09:18.990Z,24.12
2018-04-18T12:10:19.196Z,24.09
2018-04-18T12:11:19.197Z,24.05
2018-04-18T12:12:19.195Z,24.08
2018-04-18T12:13:19.209Z,24.08
2018-04-18T12:14:19.219Z,24.15
2018-04-18T12:15:19.192Z,24.09
2018-04-18T12:16:19.188Z,24.12
2018-04-18T12:17:19.191Z,24.09
2018-04-18T12:18:19.190Z,24.08
2018-04-18T12:19:18.941Z,24.09
2018-04-18T12:20:19.195Z,24.1
2018-04-18T12:21:19.200Z,24.12
2018-04-18T12:22:18.940Z,24.09
2018-04-18T12:23:19.204Z,24.1
2018-04-18T12:24:19.222Z,24.02
2018-04-18T12:25:19.205Z,24.18
2018-04-18T12:26:19.462Z,24.12
2018-04-18T12:27:19.263Z,24.1
2018-04-18T12:28:19.217Z,24.1
2018-04-18T12:29:19.217Z,24.15
2018-04-18T12:30:19.221Z,24.15
2018-04-18T12:31:19.230Z,24.24
2018-04-18T12:32:19.213Z,24.18
2018-04-18T12:33:18.952Z,24.21
2018-04-18T12:34:19.216Z,24.2
2018-04-18T12:35:19.253Z,24.16
2018-04-18T12:36:19.228Z,24.2
2018-04-18T12:37:19.224Z,24.18
2018-04-18T12:38:19.263Z,24.22
2018-04-18T12:39:19.249Z,24.18
2018-04-18T12:40:18.969Z,24.22
2018-04-18T12:41:18.985Z,24.22
2018-04-18T12:42:19.012Z,24.25
2018-04-18T12:43:19.287Z,24.25
2018-04-18T12:44:19.279Z,24.3
2018-04-18T12:45:19.268Z,24.27
2018-04-18T12:46:19.264Z,24.21
2018-04-18T12:47:19.261Z,24.35
2018-04-18T12:48:19.256Z,24.28
2018-04-18T12:49:19.268Z,24.25
2018-04-18T12:50:19.326Z,24.31
2018-04-18T12:51:19.028Z,24.25
2018-04-18T12:52:19.306Z,24.31
2018-04-18T12:53:19.292Z,24.25
2018-04-18T12:54:19.308Z,24.31
2018-04-18T12:55:19.296Z,24.39
2018-04-18T12:56:19.042Z,24.31
2018-04-18T12:57:19.551Z,24.34
2018-04-18T12:58:19.316Z,24.32
2018-04-18T12:59:19.006Z,24.32
2018-04-18T13:00:18.731Z,24.42
2018-04-18T13:01:19.267Z,24.4
2018-04-18T13:02:19.008Z,24.43
2018-04-18T13:03:19.236Z,24.34
2018-04-18T13:04:19.239Z,24.37
2018-04-18T13:05:19.247Z,24.34